sensor_id;sensor_type;location;lat;lon;timestamp;P1;durP1;ratioP1;P2;durP2;ratioP2
60819;SDS011;46641;48.904;9.126;2024-01-25T00:00:52;11.37;;;4.07;;
60819;SDS011;46641;48.904;9.126;2024-01-25T00:05:43;15.07;;;3.85;;
60819;SDS011;46641;48.904;9.126;2024-01-25T00:10:33;15.90;;;4.00;;
60819;SDS011;46641;48.904;9.126;2024-01-25T00:15:24;11.75;;;3.97;;
60819;SDS011;46641;48.904;9.126;2024-01-25T00:20:14;12.40;;;3.87;;
60819;SDS011;46641;48.904;9.126;2024-01-25T00:25:04;17.53;;;4.30;;
60819;SDS011;46641;48.904;9.126;2024-01-25T00:29:55;17.03;;;4.13;;
60819;SDS011;46641;48.904;9.126;2024-01-25T00:34:46;12.43;;;4.87;;
60819;SDS011;46641;48.904;9.126;2024-01-25T00:39:36;13.80;;;4.47;;
60819;SDS011;46641;48.904;9.126;2024-01-25T00:44:27;14.23;;;4.67;;
60819;SDS011;46641;48.904;9.126;2024-01-25T00:49:17;16.37;;;5.60;;
60819;SDS011;46641;48.904;9.126;2024-01-25T00:54:08;19.60;;;4.63;;
60819;SDS011;46641;48.904;9.126;2024-01-25T00:58:59;11.87;;;3.97;;
60819;SDS011;46641;48.904;9.126;2024-01-25T01:03:49;10.90;;;3.90;;
60819;SDS011;46641;48.904;9.126;2024-01-25T01:08:42;11.73;;;4.27;;
60819;SDS011;46641;48.904;9.126;2024-01-25T01:13:33;14.33;;;4.13;;
60819;SDS011;46641;48.904;9.126;2024-01-25T01:18:23;11.70;;;3.80;;
60819;SDS011;46641;48.904;9.126;2024-01-25T01:23:13;12.23;;;3.88;;
60819;SDS011;46641;48.904;9.126;2024-01-25T01:28:04;12.07;;;3.38;;
60819;SDS011;46641;48.904;9.126;2024-01-25T01:32:54;12.90;;;4.30;;
60819;SDS011;46641;48.904;9.126;2024-01-25T01:37:44;15.70;;;5.03;;
60819;SDS011;46641;48.904;9.126;2024-01-25T01:42:35;11.20;;;3.95;;
60819;SDS011;46641;48.904;9.126;2024-01-25T01:47:25;15.50;;;4.80;;
60819;SDS011;46641;48.904;9.126;2024-01-25T01:52:15;12.10;;;4.23;;
60819;SDS011;46641;48.904;9.126;2024-01-25T01:57:07;15.60;;;4.33;;
60819;SDS011;46641;48.904;9.126;2024-01-25T02:01:58;14.10;;;3.60;;
60819;SDS011;46641;48.904;9.126;2024-01-25T02:06:48;11.20;;;3.17;;
60819;SDS011;46641;48.904;9.126;2024-01-25T02:11:39;15.07;;;3.63;;
60819;SDS011;46641;48.904;9.126;2024-01-25T02:16:29;11.23;;;4.10;;
60819;SDS011;46641;48.904;9.126;2024-01-25T02:21:19;11.23;;;4.07;;
60819;SDS011;46641;48.904;9.126;2024-01-25T02:26:10;15.63;;;4.43;;
60819;SDS011;46641;48.904;9.126;2024-01-25T02:31:01;12.77;;;3.23;;
60819;SDS011;46641;48.904;9.126;2024-01-25T02:35:52;9.17;;;3.27;;
60819;SDS011;46641;48.904;9.126;2024-01-25T02:40:43;16.17;;;4.40;;
60819;SDS011;46641;48.904;9.126;2024-01-25T02:45:33;12.50;;;3.85;;
60819;SDS011;46641;48.904;9.126;2024-01-25T02:50:23;12.85;;;4.15;;
60819;SDS011;46641;48.904;9.126;2024-01-25T02:55:13;14.53;;;3.80;;
60819;SDS011;46641;48.904;9.126;2024-01-25T03:00:04;11.43;;;3.40;;
60819;SDS011;46641;48.904;9.126;2024-01-25T03:04:55;17.57;;;4.20;;
60819;SDS011;46641;48.904;9.126;2024-01-25T03:09:45;13.93;;;4.30;;
60819;SDS011;46641;48.904;9.126;2024-01-25T03:14:35;13.40;;;4.57;;
60819;SDS011;46641;48.904;9.126;2024-01-25T03:19:26;13.23;;;4.30;;
60819;SDS011;46641;48.904;9.126;2024-01-25T03:24:17;12.67;;;4.00;;
60819;SDS011;46641;48.904;9.126;2024-01-25T03:29:07;12.23;;;3.80;;
60819;SDS011;46641;48.904;9.126;2024-01-25T03:33:58;13.00;;;4.55;;
60819;SDS011;46641;48.904;9.126;2024-01-25T03:38:48;14.83;;;4.30;;
60819;SDS011;46641;48.904;9.126;2024-01-25T03:43:38;10.57;;;3.47;;
60819;SDS011;46641;48.904;9.126;2024-01-25T03:48:29;14.60;;;3.50;;
60819;SDS011;46641;48.904;9.126;2024-01-25T03:53:20;8.77;;;3.27;;
60819;SDS011;46641;48.904;9.126;2024-01-25T03:58:10;10.57;;;3.42;;
60819;SDS011;46641;48.904;9.126;2024-01-25T04:03:01;12.93;;;4.15;;
60819;SDS011;46641;48.904;9.126;2024-01-25T04:07:51;13.13;;;4.53;;
60819;SDS011;46641;48.904;9.126;2024-01-25T04:12:41;14.73;;;4.23;;
60819;SDS011;46641;48.904;9.126;2024-01-25T04:17:31;13.20;;;4.57;;
60819;SDS011;46641;48.904;9.126;2024-01-25T04:22:22;15.35;;;4.35;;
60819;SDS011;46641;48.904;9.126;2024-01-25T04:27:12;9.33;;;3.37;;
60819;SDS011;46641;48.904;9.126;2024-01-25T04:32:02;12.88;;;3.78;;
60819;SDS011;46641;48.904;9.126;2024-01-25T04:36:53;15.00;;;4.03;;
60819;SDS011;46641;48.904;9.126;2024-01-25T04:41:44;10.50;;;4.63;;
60819;SDS011;46641;48.904;9.126;2024-01-25T04:46:34;10.07;;;4.43;;
60819;SDS011;46641;48.904;9.126;2024-01-25T04:51:26;12.80;;;4.37;;
60819;SDS011;46641;48.904;9.126;2024-01-25T04:56:17;12.23;;;4.20;;
60819;SDS011;46641;48.904;9.126;2024-01-25T05:01:07;13.43;;;3.97;;
60819;SDS011;46641;48.904;9.126;2024-01-25T05:05:57;17.88;;;5.38;;
60819;SDS011;46641;48.904;9.126;2024-01-25T05:10:48;16.15;;;4.35;;
60819;SDS011;46641;48.904;9.126;2024-01-25T05:15:38;14.82;;;4.30;;
60819;SDS011;46641;48.904;9.126;2024-01-25T05:20:28;12.65;;;4.07;;
60819;SDS011;46641;48.904;9.126;2024-01-25T05:25:22;9.83;;;3.70;;
60819;SDS011;46641;48.904;9.126;2024-01-25T05:30:12;10.33;;;3.87;;
60819;SDS011;46641;48.904;9.126;2024-01-25T05:35:03;16.60;;;4.87;;
60819;SDS011;46641;48.904;9.126;2024-01-25T05:39:54;20.37;;;4.13;;
60819;SDS011;46641;48.904;9.126;2024-01-25T05:44:45;7.27;;;3.77;;
60819;SDS011;46641;48.904;9.126;2024-01-25T05:49:35;13.53;;;3.90;;
60819;SDS011;46641;48.904;9.126;2024-01-25T05:54:26;8.97;;;3.20;;
60819;SDS011;46641;48.904;9.126;2024-01-25T05:59:16;13.73;;;4.10;;
60819;SDS011;46641;48.904;9.126;2024-01-25T06:04:06;9.85;;;3.83;;
60819;SDS011;46641;48.904;9.126;2024-01-25T06:08:57;13.97;;;4.30;;
60819;SDS011;46641;48.904;9.126;2024-01-25T06:13:47;10.10;;;3.80;;
60819;SDS011;46641;48.904;9.126;2024-01-25T06:18:37;10.40;;;4.47;;
60819;SDS011;46641;48.904;9.126;2024-01-25T06:23:28;12.97;;;3.97;;
60819;SDS011;46641;48.904;9.126;2024-01-25T06:28:18;11.80;;;4.27;;
60819;SDS011;46641;48.904;9.126;2024-01-25T06:33:09;15.25;;;5.28;;
60819;SDS011;46641;48.904;9.126;2024-01-25T06:37:59;11.88;;;4.18;;
60819;SDS011;46641;48.904;9.126;2024-01-25T06:42:50;10.03;;;4.03;;
60819;SDS011;46641;48.904;9.126;2024-01-25T06:47:40;13.13;;;3.93;;
60819;SDS011;46641;48.904;9.126;2024-01-25T06:52:31;7.87;;;3.80;;
60819;SDS011;46641;48.904;9.126;2024-01-25T06:57:21;12.63;;;3.67;;
60819;SDS011;46641;48.904;9.126;2024-01-25T07:02:12;10.87;;;4.20;;
60819;SDS011;46641;48.904;9.126;2024-01-25T07:07:02;7.87;;;3.70;;
60819;SDS011;46641;48.904;9.126;2024-01-25T07:11:53;13.93;;;4.03;;
60819;SDS011;46641;48.904;9.126;2024-01-25T07:16:44;8.30;;;3.10;;
60819;SDS011;46641;48.904;9.126;2024-01-25T07:21:34;13.90;;;4.63;;
60819;SDS011;46641;48.904;9.126;2024-01-25T07:26:25;11.67;;;4.30;;
60819;SDS011;46641;48.904;9.126;2024-01-25T07:31:15;15.27;;;5.85;;
60819;SDS011;46641;48.904;9.126;2024-01-25T07:36:05;11.75;;;4.47;;
60819;SDS011;46641;48.904;9.126;2024-01-25T07:40:56;11.60;;;4.93;;
60819;SDS011;46641;48.904;9.126;2024-01-25T07:45:46;16.60;;;4.60;;
60819;SDS011;46641;48.904;9.126;2024-01-25T07:50:36;15.57;;;5.00;;
60819;SDS011;46641;48.904;9.126;2024-01-25T07:55:27;9.47;;;4.40;;
60819;SDS011;46641;48.904;9.126;2024-01-25T08:00:17;16.13;;;4.43;;
60819;SDS011;46641;48.904;9.126;2024-01-25T08:05:08;14.80;;;4.30;;
60819;SDS011;46641;48.904;9.126;2024-01-25T08:09:58;14.33;;;4.33;;
60819;SDS011;46641;48.904;9.126;2024-01-25T08:14:49;11.63;;;3.97;;
60819;SDS011;46641;48.904;9.126;2024-01-25T08:19:39;10.73;;;3.88;;
60819;SDS011;46641;48.904;9.126;2024-01-25T08:24:29;13.73;;;5.20;;
60819;SDS011;46641;48.904;9.126;2024-01-25T08:29:20;8.25;;;3.78;;
60819;SDS011;46641;48.904;9.126;2024-01-25T08:34:11;13.30;;;4.27;;
60819;SDS011;46641;48.904;9.126;2024-01-25T08:39:01;11.40;;;4.40;;
60819;SDS011;46641;48.904;9.126;2024-01-25T08:43:51;10.80;;;5.07;;
60819;SDS011;46641;48.904;9.126;2024-01-25T08:48:42;15.20;;;4.17;;
60819;SDS011;46641;48.904;9.126;2024-01-25T08:53:32;13.13;;;4.55;;
60819;SDS011;46641;48.904;9.126;2024-01-25T08:58:22;15.13;;;4.90;;
60819;SDS011;46641;48.904;9.126;2024-01-25T09:03:13;9.55;;;3.70;;
60819;SDS011;46641;48.904;9.126;2024-01-25T09:08:04;11.33;;;4.17;;
60819;SDS011;46641;48.904;9.126;2024-01-25T09:12:55;13.60;;;4.10;;
60819;SDS011;46641;48.904;9.126;2024-01-25T09:17:45;11.88;;;4.30;;
60819;SDS011;46641;48.904;9.126;2024-01-25T09:22:35;9.25;;;3.42;;
60819;SDS011;46641;48.904;9.126;2024-01-25T09:27:25;12.60;;;3.97;;
60819;SDS011;46641;48.904;9.126;2024-01-25T09:32:16;13.77;;;4.70;;
60819;SDS011;46641;48.904;9.126;2024-01-25T09:37:07;11.57;;;4.70;;
60819;SDS011;46641;48.904;9.126;2024-01-25T09:41:57;14.33;;;4.53;;
60819;SDS011;46641;48.904;9.126;2024-01-25T09:46:48;11.83;;;3.80;;
60819;SDS011;46641;48.904;9.126;2024-01-25T09:51:39;14.30;;;4.17;;
60819;SDS011;46641;48.904;9.126;2024-01-25T09:56:31;14.97;;;4.23;;
60819;SDS011;46641;48.904;9.126;2024-01-25T10:01:22;9.87;;;3.20;;
60819;SDS011;46641;48.904;9.126;2024-01-25T10:06:13;13.80;;;5.37;;
60819;SDS011;46641;48.904;9.126;2024-01-25T10:11:04;10.03;;;4.23;;
60819;SDS011;46641;48.904;9.126;2024-01-25T10:15:55;13.93;;;3.87;;
60819;SDS011;46641;48.904;9.126;2024-01-25T10:20:46;11.27;;;3.90;;
60819;SDS011;46641;48.904;9.126;2024-01-25T10:25:37;12.77;;;4.18;;
60819;SDS011;46641;48.904;9.126;2024-01-25T10:30:27;13.27;;;4.33;;
60819;SDS011;46641;48.904;9.126;2024-01-25T10:35:21;15.20;;;4.87;;
60819;SDS011;46641;48.904;9.126;2024-01-25T10:40:12;12.27;;;3.87;;
60819;SDS011;46641;48.904;9.126;2024-01-25T10:45:04;17.17;;;4.03;;
60819;SDS011;46641;48.904;9.126;2024-01-25T10:49:55;10.97;;;3.80;;
60819;SDS011;46641;48.904;9.126;2024-01-25T10:54:45;10.07;;;3.63;;
60819;SDS011;46641;48.904;9.126;2024-01-25T10:59:35;11.60;;;3.53;;
60819;SDS011;46641;48.904;9.126;2024-01-25T11:04:26;13.40;;;4.80;;
60819;SDS011;46641;48.904;9.126;2024-01-25T11:09:17;13.80;;;4.35;;
60819;SDS011;46641;48.904;9.126;2024-01-25T11:14:11;12.23;;;3.87;;
60819;SDS011;46641;48.904;9.126;2024-01-25T11:19:04;14.33;;;3.57;;
60819;SDS011;46641;48.904;9.126;2024-01-25T11:23:58;8.57;;;3.27;;
60819;SDS011;46641;48.904;9.126;2024-01-25T11:28:52;12.80;;;4.03;;
60819;SDS011;46641;48.904;9.126;2024-01-25T11:33:43;9.02;;;3.05;;
60819;SDS011;46641;48.904;9.126;2024-01-25T11:38:33;8.73;;;3.90;;
60819;SDS011;46641;48.904;9.126;2024-01-25T11:43:26;14.03;;;3.87;;
60819;SDS011;46641;48.904;9.126;2024-01-25T11:48:18;11.03;;;3.63;;
60819;SDS011;46641;48.904;9.126;2024-01-25T11:53:08;10.40;;;3.67;;
60819;SDS011;46641;48.904;9.126;2024-01-25T11:57:59;11.93;;;3.67;;
60819;SDS011;46641;48.904;9.126;2024-01-25T12:02:50;8.97;;;3.80;;
60819;SDS011;46641;48.904;9.126;2024-01-25T12:07:40;6.60;;;3.17;;
60819;SDS011;46641;48.904;9.126;2024-01-25T12:12:31;7.20;;;2.73;;
60819;SDS011;46641;48.904;9.126;2024-01-25T12:17:21;9.05;;;4.03;;
60819;SDS011;46641;48.904;9.126;2024-01-25T12:22:11;10.73;;;3.80;;
60819;SDS011;46641;48.904;9.126;2024-01-25T12:27:09;11.93;;;3.27;;
60819;SDS011;46641;48.904;9.126;2024-01-25T12:32:00;9.10;;;3.10;;
60819;SDS011;46641;48.904;9.126;2024-01-25T12:36:50;9.75;;;3.30;;
60819;SDS011;46641;48.904;9.126;2024-01-25T12:41:42;7.67;;;2.73;;
60819;SDS011;46641;48.904;9.126;2024-01-25T12:46:33;7.33;;;2.90;;
60819;SDS011;46641;48.904;9.126;2024-01-25T12:51:23;7.50;;;2.50;;
60819;SDS011;46641;48.904;9.126;2024-01-25T12:56:14;12.33;;;2.77;;
60819;SDS011;46641;48.904;9.126;2024-01-25T13:01:04;12.00;;;3.38;;
60819;SDS011;46641;48.904;9.126;2024-01-25T13:05:55;9.03;;;2.50;;
60819;SDS011;46641;48.904;9.126;2024-01-25T13:10:45;8.07;;;2.40;;
60819;SDS011;46641;48.904;9.126;2024-01-25T13:15:36;9.30;;;2.63;;
60819;SDS011;46641;48.904;9.126;2024-01-25T13:20:26;5.77;;;2.63;;
60819;SDS011;46641;48.904;9.126;2024-01-25T13:25:16;7.47;;;2.63;;
60819;SDS011;46641;48.904;9.126;2024-01-25T13:30:07;8.65;;;2.78;;
60819;SDS011;46641;48.904;9.126;2024-01-25T13:35:01;6.53;;;2.57;;
60819;SDS011;46641;48.904;9.126;2024-01-25T13:39:51;6.70;;;2.70;;
60819;SDS011;46641;48.904;9.126;2024-01-25T13:44:42;10.43;;;2.50;;
60819;SDS011;46641;48.904;9.126;2024-01-25T13:49:32;9.43;;;3.03;;
60819;SDS011;46641;48.904;9.126;2024-01-25T13:54:23;6.83;;;2.93;;
60819;SDS011;46641;48.904;9.126;2024-01-25T13:59:13;5.83;;;2.70;;
60819;SDS011;46641;48.904;9.126;2024-01-25T14:04:05;6.37;;;3.10;;
60819;SDS011;46641;48.904;9.126;2024-01-25T14:08:55;9.80;;;2.70;;
60819;SDS011;46641;48.904;9.126;2024-01-25T14:13:45;8.18;;;2.92;;
60819;SDS011;46641;48.904;9.126;2024-01-25T14:18:36;7.50;;;2.60;;
60819;SDS011;46641;48.904;9.126;2024-01-25T14:23:27;8.17;;;2.57;;
60819;SDS011;46641;48.904;9.126;2024-01-25T14:28:17;10.52;;;3.10;;
60819;SDS011;46641;48.904;9.126;2024-01-25T14:33:08;6.97;;;2.40;;
60819;SDS011;46641;48.904;9.126;2024-01-25T14:37:58;8.23;;;2.42;;
60819;SDS011;46641;48.904;9.126;2024-01-25T14:42:48;7.23;;;2.80;;
60819;SDS011;46641;48.904;9.126;2024-01-25T14:47:39;5.83;;;2.83;;
60819;SDS011;46641;48.904;9.126;2024-01-25T14:52:29;7.65;;;2.88;;
60819;SDS011;46641;48.904;9.126;2024-01-25T14:57:23;8.87;;;3.30;;
60819;SDS011;46641;48.904;9.126;2024-01-25T15:02:14;9.03;;;2.83;;
60819;SDS011;46641;48.904;9.126;2024-01-25T15:07:04;8.73;;;2.35;;
60819;SDS011;46641;48.904;9.126;2024-01-25T15:11:54;8.00;;;2.70;;
60819;SDS011;46641;48.904;9.126;2024-01-25T15:16:45;6.50;;;2.47;;
60819;SDS011;46641;48.904;9.126;2024-01-25T15:21:35;7.13;;;2.47;;
60819;SDS011;46641;48.904;9.126;2024-01-25T15:26:26;5.10;;;2.27;;
60819;SDS011;46641;48.904;9.126;2024-01-25T15:31:17;7.40;;;2.80;;
60819;SDS011;46641;48.904;9.126;2024-01-25T15:36:08;6.23;;;2.37;;
60819;SDS011;46641;48.904;9.126;2024-01-25T15:40:58;6.63;;;3.00;;
60819;SDS011;46641;48.904;9.126;2024-01-25T15:45:48;6.53;;;2.75;;
60819;SDS011;46641;48.904;9.126;2024-01-25T15:50:39;5.03;;;1.73;;
60819;SDS011;46641;48.904;9.126;2024-01-25T15:55:29;4.83;;;2.30;;
60819;SDS011;46641;48.904;9.126;2024-01-25T16:00:20;7.00;;;2.85;;
60819;SDS011;46641;48.904;9.126;2024-01-25T16:05:10;7.07;;;2.60;;
60819;SDS011;46641;48.904;9.126;2024-01-25T16:10:01;39.00;;;22.47;;
60819;SDS011;46641;48.904;9.126;2024-01-25T16:14:52;24.43;;;16.07;;
60819;SDS011;46641;48.904;9.126;2024-01-25T16:19:44;21.60;;;15.57;;
60819;SDS011;46641;48.904;9.126;2024-01-25T16:24:34;18.92;;;13.43;;
60819;SDS011;46641;48.904;9.126;2024-01-25T16:29:24;10.13;;;7.13;;
60819;SDS011;46641;48.904;9.126;2024-01-25T16:34:15;6.80;;;2.47;;
60819;SDS011;46641;48.904;9.126;2024-01-25T16:39:05;6.23;;;2.70;;
60819;SDS011;46641;48.904;9.126;2024-01-25T16:43:55;5.37;;;2.40;;
60819;SDS011;46641;48.904;9.126;2024-01-25T16:48:46;4.15;;;2.10;;
60819;SDS011;46641;48.904;9.126;2024-01-25T16:53:36;6.05;;;2.42;;
60819;SDS011;46641;48.904;9.126;2024-01-25T16:58:26;7.53;;;2.97;;
60819;SDS011;46641;48.904;9.126;2024-01-25T17:03:17;11.00;;;3.37;;
60819;SDS011;46641;48.904;9.126;2024-01-25T17:08:07;5.93;;;3.10;;
60819;SDS011;46641;48.904;9.126;2024-01-25T17:12:57;7.85;;;3.17;;
60819;SDS011;46641;48.904;9.126;2024-01-25T17:17:48;6.00;;;2.83;;
60819;SDS011;46641;48.904;9.126;2024-01-25T17:22:38;6.47;;;2.90;;
60819;SDS011;46641;48.904;9.126;2024-01-25T17:27:28;6.60;;;3.03;;
60819;SDS011;46641;48.904;9.126;2024-01-25T17:32:18;5.97;;;2.58;;
60819;SDS011;46641;48.904;9.126;2024-01-25T17:37:09;9.48;;;3.25;;
60819;SDS011;46641;48.904;9.126;2024-01-25T17:41:59;5.82;;;3.45;;
60819;SDS011;46641;48.904;9.126;2024-01-25T17:46:49;6.97;;;2.90;;
60819;SDS011;46641;48.904;9.126;2024-01-25T17:51:40;4.43;;;2.73;;
60819;SDS011;46641;48.904;9.126;2024-01-25T17:56:30;6.28;;;2.88;;
60819;SDS011;46641;48.904;9.126;2024-01-25T18:01:20;6.97;;;3.00;;
60819;SDS011;46641;48.904;9.126;2024-01-25T18:06:10;2.67;;;2.40;;
60819;SDS011;46641;48.904;9.126;2024-01-25T18:11:01;6.32;;;3.30;;
60819;SDS011;46641;48.904;9.126;2024-01-25T18:15:51;6.87;;;2.80;;
60819;SDS011;46641;48.904;9.126;2024-01-25T18:20:42;7.07;;;2.90;;
60819;SDS011;46641;48.904;9.126;2024-01-25T18:25:32;8.20;;;3.23;;
60819;SDS011;46641;48.904;9.126;2024-01-25T18:30:23;8.02;;;3.70;;
60819;SDS011;46641;48.904;9.126;2024-01-25T18:35:13;12.85;;;7.13;;
60819;SDS011;46641;48.904;9.126;2024-01-25T18:40:03;15.07;;;7.90;;
60819;SDS011;46641;48.904;9.126;2024-01-25T18:44:54;18.17;;;10.27;;
60819;SDS011;46641;48.904;9.126;2024-01-25T18:49:44;9.80;;;4.70;;
60819;SDS011;46641;48.904;9.126;2024-01-25T18:54:34;8.47;;;4.90;;
60819;SDS011;46641;48.904;9.126;2024-01-25T18:59:25;6.03;;;4.50;;
60819;SDS011;46641;48.904;9.126;2024-01-25T19:04:16;7.40;;;4.17;;
60819;SDS011;46641;48.904;9.126;2024-01-25T19:09:06;9.77;;;6.20;;
60819;SDS011;46641;48.904;9.126;2024-01-25T19:13:57;8.77;;;6.23;;
60819;SDS011;46641;48.904;9.126;2024-01-25T19:18:47;12.70;;;4.73;;
60819;SDS011;46641;48.904;9.126;2024-01-25T19:23:39;7.00;;;4.50;;
60819;SDS011;46641;48.904;9.126;2024-01-25T19:28:29;7.23;;;3.73;;
60819;SDS011;46641;48.904;9.126;2024-01-25T19:33:21;6.37;;;3.57;;
60819;SDS011;46641;48.904;9.126;2024-01-25T19:38:11;7.23;;;3.40;;
60819;SDS011;46641;48.904;9.126;2024-01-25T19:43:01;6.80;;;3.43;;
60819;SDS011;46641;48.904;9.126;2024-01-25T19:47:52;5.93;;;3.60;;
60819;SDS011;46641;48.904;9.126;2024-01-25T19:52:42;4.70;;;3.40;;
60819;SDS011;46641;48.904;9.126;2024-01-25T19:57:33;5.30;;;3.10;;
60819;SDS011;46641;48.904;9.126;2024-01-25T20:02:24;8.53;;;3.47;;
60819;SDS011;46641;48.904;9.126;2024-01-25T20:07:14;6.60;;;2.87;;
60819;SDS011;46641;48.904;9.126;2024-01-25T20:12:05;4.43;;;3.40;;
60819;SDS011;46641;48.904;9.126;2024-01-25T20:16:55;8.13;;;3.30;;
60819;SDS011;46641;48.904;9.126;2024-01-25T20:21:45;7.43;;;3.63;;
60819;SDS011;46641;48.904;9.126;2024-01-25T20:26:36;7.23;;;4.07;;
60819;SDS011;46641;48.904;9.126;2024-01-25T20:31:26;11.40;;;4.27;;
60819;SDS011;46641;48.904;9.126;2024-01-25T20:36:17;8.23;;;4.60;;
60819;SDS011;46641;48.904;9.126;2024-01-25T20:41:07;8.87;;;4.63;;
60819;SDS011;46641;48.904;9.126;2024-01-25T20:45:58;8.80;;;4.70;;
60819;SDS011;46641;48.904;9.126;2024-01-25T20:50:48;9.60;;;5.03;;
60819;SDS011;46641;48.904;9.126;2024-01-25T20:55:38;7.27;;;4.30;;
60819;SDS011;46641;48.904;9.126;2024-01-25T21:00:29;9.90;;;4.00;;
60819;SDS011;46641;48.904;9.126;2024-01-25T21:05:19;8.30;;;4.93;;
60819;SDS011;46641;48.904;9.126;2024-01-25T21:10:10;8.70;;;6.23;;
60819;SDS011;46641;48.904;9.126;2024-01-25T21:15:00;7.10;;;5.63;;
60819;SDS011;46641;48.904;9.126;2024-01-25T21:19:52;6.40;;;4.53;;
60819;SDS011;46641;48.904;9.126;2024-01-25T21:24:42;6.43;;;4.80;;
60819;SDS011;46641;48.904;9.126;2024-01-25T21:29:33;7.70;;;4.30;;
60819;SDS011;46641;48.904;9.126;2024-01-25T21:34:23;7.37;;;4.13;;
60819;SDS011;46641;48.904;9.126;2024-01-25T21:39:14;6.13;;;3.73;;
60819;SDS011;46641;48.904;9.126;2024-01-25T21:44:04;6.90;;;4.47;;
60819;SDS011;46641;48.904;9.126;2024-01-25T21:48:54;4.70;;;4.03;;
60819;SDS011;46641;48.904;9.126;2024-01-25T21:53:45;6.07;;;4.55;;
60819;SDS011;46641;48.904;9.126;2024-01-25T21:58:35;7.80;;;4.22;;
60819;SDS011;46641;48.904;9.126;2024-01-25T22:03:25;7.13;;;5.00;;
60819;SDS011;46641;48.904;9.126;2024-01-25T22:08:15;8.45;;;5.13;;
60819;SDS011;46641;48.904;9.126;2024-01-25T22:13:06;8.00;;;4.10;;
60819;SDS011;46641;48.904;9.126;2024-01-25T22:17:56;6.53;;;4.07;;
60819;SDS011;46641;48.904;9.126;2024-01-25T22:22:46;7.70;;;4.23;;
60819;SDS011;46641;48.904;9.126;2024-01-25T22:27:37;5.67;;;4.17;;
60819;SDS011;46641;48.904;9.126;2024-01-25T22:32:27;6.20;;;4.40;;
60819;SDS011;46641;48.904;9.126;2024-01-25T22:37:18;5.63;;;4.30;;
60819;SDS011;46641;48.904;9.126;2024-01-25T22:42:08;5.57;;;4.38;;
60819;SDS011;46641;48.904;9.126;2024-01-25T22:46:58;4.83;;;4.30;;
60819;SDS011;46641;48.904;9.126;2024-01-25T22:51:49;6.83;;;4.50;;
60819;SDS011;46641;48.904;9.126;2024-01-25T22:56:39;6.80;;;4.55;;
60819;SDS011;46641;48.904;9.126;2024-01-25T23:01:29;6.83;;;4.37;;
60819;SDS011;46641;48.904;9.126;2024-01-25T23:06:19;6.03;;;4.40;;
60819;SDS011;46641;48.904;9.126;2024-01-25T23:11:10;5.70;;;4.88;;
60819;SDS011;46641;48.904;9.126;2024-01-25T23:16:00;6.67;;;4.30;;
60819;SDS011;46641;48.904;9.126;2024-01-25T23:20:50;7.03;;;4.20;;
60819;SDS011;46641;48.904;9.126;2024-01-25T23:25:41;5.13;;;4.40;;
60819;SDS011;46641;48.904;9.126;2024-01-25T23:30:33;4.93;;;4.43;;
60819;SDS011;46641;48.904;9.126;2024-01-25T23:35:23;5.20;;;4.70;;
60819;SDS011;46641;48.904;9.126;2024-01-25T23:40:14;6.70;;;4.50;;
60819;SDS011;46641;48.904;9.126;2024-01-25T23:45:05;5.00;;;4.37;;
60819;SDS011;46641;48.904;9.126;2024-01-25T23:49:56;7.43;;;4.10;;
60819;SDS011;46641;48.904;9.126;2024-01-25T23:54:46;7.55;;;5.40;;
60819;SDS011;46641;48.904;9.126;2024-01-25T23:59:36;5.73;;;5.13;;
